createdAt,value
2017-12-20T00:00:01.140Z,1023.6
2017-12-20T00:01:01.116Z,1023.5
2017-12-20T00:02:00.994Z,1023.6
2017-12-20T00:03:00.922Z,1023.6
2017-12-20T00:04:01.115Z,1023.5
2017-12-20T00:05:00.916Z,1023.5
2017-12-20T00:06:01.344Z,1023.5
2017-12-20T00:07:00.944Z,1023.4
2017-12-20T00:08:01.108Z,1023.5
2017-12-20T00:09:01.138Z,1023.4
2017-12-20T00:10:01.144Z,1023.4
2017-12-20T00:11:00.993Z,1023.4
2017-12-20T00:12:01.160Z,1023.3
2017-12-20T00:13:01.104Z,1023.4
2017-12-20T00:14:01.157Z,1023.3
2017-12-20T00:15:00.926Z,1023.3
2017-12-20T00:16:00.921Z,1023.3
2017-12-20T00:17:01.276Z,1023.2
2017-12-20T00:18:01.142Z,1023.2
2017-12-20T00:19:01.086Z,1023.3
2017-12-20T00:20:01.100Z,1023.2
2017-12-20T00:21:00.938Z,1023.2
2017-12-20T00:22:01.128Z,1023.2
2017-12-20T00:23:01.136Z,1023.2
2017-12-20T00:24:01.124Z,1023.2
2017-12-20T00:25:01.142Z,1023.2
2017-12-20T00:26:01.102Z,1023.3
2017-12-20T00:27:00.869Z,1023.2
2017-12-20T00:28:01.146Z,1023.2
2017-12-20T00:29:00.949Z,1023.2
2017-12-20T00:30:01.137Z,1023.2
2017-12-20T00:31:01.279Z,1023.2
2017-12-20T00:32:01.139Z,1023.2
2017-12-20T00:33:01.100Z,1023.2
2017-12-20T00:34:01.106Z,1023.2
2017-12-20T00:35:01.091Z,1023.1
2017-12-20T00:36:01.313Z,1023.2
2017-12-20T00:37:01.072Z,1023.1
2017-12-20T00:38:01.460Z,1023.1
2017-12-20T00:39:01.304Z,1023.1
2017-12-20T00:40:00.946Z,1023.1
2017-12-20T00:41:01.122Z,1023.1
2017-12-20T00:42:01.166Z,1023.1
2017-12-20T00:43:01.138Z,1023.1
2017-12-20T00:44:01.124Z,1023
2017-12-20T00:45:01.096Z,1023
2017-12-20T00:46:01.125Z,1023
2017-12-20T00:47:01.308Z,1023
2017-12-20T00:48:01.316Z,1022.9
2017-12-20T00:49:01.106Z,1022.9
2017-12-20T00:50:01.364Z,1022.8
2017-12-20T00:51:00.936Z,1022.9
2017-12-20T00:52:01.152Z,1022.8
2017-12-20T00:53:01.125Z,1022.8
2017-12-20T00:54:01.349Z,1022.8
2017-12-20T00:55:01.096Z,1022.8
2017-12-20T00:56:01.112Z,1022.8
2017-12-20T00:57:01.091Z,1022.7
2017-12-20T00:58:01.214Z,1022.8
2017-12-20T00:59:00.956Z,1022.8
2017-12-20T01:00:00.973Z,1022.8
2017-12-20T01:01:01.095Z,1022.8
2017-12-20T01:02:00.941Z,1022.8
2017-12-20T01:03:01.106Z,1022.9
2017-12-20T01:04:01.178Z,1022.9
2017-12-20T01:05:01.281Z,1022.9
2017-12-20T01:06:01.121Z,1022.9
2017-12-20T01:07:00.955Z,1022.9
2017-12-20T01:08:00.963Z,1022.9
2017-12-20T01:09:00.991Z,1022.9
2017-12-20T01:10:01.147Z,1023
2017-12-20T01:11:01.164Z,1022.9
2017-12-20T01:12:00.936Z,1022.9
2017-12-20T01:13:00.982Z,1022.9
2017-12-20T01:14:01.139Z,1022.9
2017-12-20T01:15:01.336Z,1023
2017-12-20T01:16:01.341Z,1022.9
2017-12-20T01:17:01.116Z,1023
2017-12-20T01:18:00.928Z,1023
2017-12-20T01:19:00.995Z,1023
2017-12-20T01:20:01.105Z,1023
2017-12-20T01:21:01.153Z,1023
2017-12-20T01:22:00.956Z,1023
2017-12-20T01:23:01.135Z,1023
2017-12-20T01:24:01.340Z,1023
2017-12-20T01:25:01.154Z,1023
2017-12-20T01:26:01.133Z,1023
2017-12-20T01:27:01.150Z,1023.1
2017-12-20T01:28:01.145Z,1023
2017-12-20T01:29:01.173Z,1023.1
2017-12-20T01:30:01.165Z,1023.1
2017-12-20T01:31:01.119Z,1023.1
2017-12-20T01:32:01.341Z,1023.1
2017-12-20T01:33:01.106Z,1023.1
2017-12-20T01:34:01.160Z,1023.1
2017-12-20T01:35:01.147Z,1023.1
2017-12-20T01:36:00.950Z,1023
2017-12-20T01:37:01.136Z,1023
2017-12-20T01:38:01.343Z,1023
2017-12-20T01:39:00.989Z,1023.1
2017-12-20T01:40:01.089Z,1023.1
2017-12-20T01:41:01.154Z,1023.1
2017-12-20T01:42:01.308Z,1023
2017-12-20T01:43:01.375Z,1023.1
2017-12-20T01:44:01.209Z,1023
2017-12-20T01:45:00.938Z,1023.1
2017-12-20T01:46:01.364Z,1023.1
2017-12-20T01:47:01.166Z,1023
2017-12-20T01:48:00.963Z,1023
2017-12-20T01:49:01.356Z,1023
2017-12-20T01:50:01.177Z,1023
2017-12-20T01:51:01.334Z,1023
2017-12-20T01:52:01.162Z,1023
2017-12-20T01:53:00.931Z,1023
2017-12-20T01:54:01.215Z,1023
2017-12-20T01:55:01.118Z,1023
2017-12-20T01:56:00.952Z,1023
2017-12-20T01:57:01.141Z,1023.1
2017-12-20T01:58:01.147Z,1023
2017-12-20T01:59:01.169Z,1023
2017-12-20T02:00:01.155Z,1023
2017-12-20T02:01:00.993Z,1023
2017-12-20T02:02:01.140Z,1023.1
2017-12-20T02:03:01.137Z,1023.1
2017-12-20T02:04:01.150Z,1023
2017-12-20T02:05:00.955Z,1023
2017-12-20T02:06:01.125Z,1023.1
2017-12-20T02:07:01.309Z,1023
2017-12-20T02:08:01.174Z,1023
2017-12-20T02:09:01.234Z,1023
2017-12-20T02:10:01.138Z,1023
2017-12-20T02:11:00.994Z,1023
2017-12-20T02:12:00.964Z,1023
2017-12-20T02:13:00.971Z,1023
2017-12-20T02:14:01.004Z,1023
2017-12-20T02:15:01.215Z,1023
2017-12-20T02:16:01.168Z,1023
2017-12-20T02:17:01.335Z,1023
2017-12-20T02:18:01.327Z,1023
2017-12-20T02:19:01.172Z,1023
2017-12-20T02:20:01.127Z,1023
2017-12-20T02:21:01.139Z,1023
2017-12-20T02:22:01.154Z,1022.9
2017-12-20T02:23:01.167Z,1022.9
2017-12-20T02:24:00.984Z,1022.9
2017-12-20T02:25:01.341Z,1022.9
2017-12-20T02:26:01.158Z,1022.9
2017-12-20T02:27:01.231Z,1022.8
2017-12-20T02:28:00.954Z,1022.9
2017-12-20T02:29:01.334Z,1022.9
2017-12-20T02:30:01.186Z,1022.9
2017-12-20T02:31:00.968Z,1022.9
2017-12-20T02:32:01.211Z,1022.9
2017-12-20T02:33:01.146Z,1022.9
2017-12-20T02:34:01.377Z,1022.9
2017-12-20T02:35:00.962Z,1022.9
2017-12-20T02:36:01.340Z,1022.8
2017-12-20T02:37:01.272Z,1022.9
2017-12-20T02:38:01.184Z,1022.9
2017-12-20T02:39:01.391Z,1022.9
2017-12-20T02:40:01.408Z,1022.9
2017-12-20T02:41:01.376Z,1022.9
2017-12-20T02:42:01.264Z,1022.9
2017-12-20T02:43:01.153Z,1022.9
2017-12-20T02:44:01.351Z,1022.9
2017-12-20T02:45:01.169Z,1022.8
2017-12-20T02:46:01.397Z,1022.9
2017-12-20T02:47:01.225Z,1022.9
2017-12-20T02:48:01.162Z,1022.8
2017-12-20T02:49:01.381Z,1022.8
2017-12-20T02:50:01.374Z,1022.8
2017-12-20T02:51:01.166Z,1022.8
2017-12-20T02:52:00.977Z,1022.8
2017-12-20T02:53:01.368Z,1022.8
2017-12-20T02:54:01.339Z,1022.8
2017-12-20T02:55:01.346Z,1022.8
2017-12-20T02:56:01.408Z,1022.8
2017-12-20T02:57:01.320Z,1022.7
2017-12-20T02:58:01.395Z,1022.7
2017-12-20T02:59:01.097Z,1022.7
2017-12-20T03:00:01.331Z,1022.7
2017-12-20T03:01:01.151Z,1022.7
2017-12-20T03:02:00.968Z,1022.7
2017-12-20T03:03:01.328Z,1022.7
2017-12-20T03:04:01.256Z,1022.7
2017-12-20T03:05:01.332Z,1022.7
2017-12-20T03:06:01.181Z,1022.7
2017-12-20T03:07:00.970Z,1022.7
2017-12-20T03:08:01.139Z,1022.7
2017-12-20T03:09:00.981Z,1022.6
2017-12-20T03:10:01.378Z,1022.6
2017-12-20T03:11:00.977Z,1022.6
2017-12-20T03:12:01.213Z,1022.6
2017-12-20T03:13:01.187Z,1022.7
2017-12-20T03:14:01.358Z,1022.6
2017-12-20T03:15:01.184Z,1022.7
2017-12-20T03:16:01.212Z,1022.6
2017-12-20T03:17:01.248Z,1022.6
2017-12-20T03:18:00.985Z,1022.6
2017-12-20T03:19:01.198Z,1022.6
2017-12-20T03:20:01.198Z,1022.6
2017-12-20T03:21:01.363Z,1022.6
2017-12-20T03:22:01.546Z,1022.6
2017-12-20T03:23:01.181Z,1022.6
2017-12-20T03:24:01.187Z,1022.6
2017-12-20T03:25:00.999Z,1022.6
2017-12-20T03:26:01.199Z,1022.6
2017-12-20T03:27:01.440Z,1022.6
2017-12-20T03:28:01.160Z,1022.6
2017-12-20T03:29:00.978Z,1022.6
2017-12-20T03:30:01.045Z,1022.6
2017-12-20T03:31:01.227Z,1022.6
2017-12-20T03:32:01.212Z,1022.6
2017-12-20T03:33:01.175Z,1022.6
2017-12-20T03:34:00.990Z,1022.6
2017-12-20T03:35:00.989Z,1022.5
2017-12-20T03:36:00.980Z,1022.5
2017-12-20T03:37:01.219Z,1022.5
2017-12-20T03:38:01.342Z,1022.5
2017-12-20T03:39:01.166Z,1022.5
2017-12-20T03:40:01.186Z,1022.5
2017-12-20T03:41:01.347Z,1022.5
2017-12-20T03:42:01.054Z,1022.4
2017-12-20T03:43:01.440Z,1022.4
2017-12-20T03:44:01.170Z,1022.4
2017-12-20T03:45:00.989Z,1022.4
2017-12-20T03:46:01.175Z,1022.4
2017-12-20T03:47:01.430Z,1022.4
2017-12-20T03:48:01.311Z,1022.4
2017-12-20T03:49:01.174Z,1022.4
2017-12-20T03:50:00.976Z,1022.4
2017-12-20T03:51:01.189Z,1022.4
2017-12-20T03:52:01.185Z,1022.4
2017-12-20T03:53:01.389Z,1022.3
2017-12-20T03:54:01.144Z,1022.4
2017-12-20T03:55:00.969Z,1022.4
2017-12-20T03:56:00.970Z,1022.3
2017-12-20T03:57:01.397Z,1022.4
2017-12-20T03:58:01.058Z,1022.3
2017-12-20T03:59:00.970Z,1022.4
2017-12-20T04:00:01.175Z,1022.4
2017-12-20T04:01:01.294Z,1022.4
2017-12-20T04:02:01.182Z,1022.4
2017-12-20T04:03:01.407Z,1022.4
2017-12-20T04:04:01.372Z,1022.4
2017-12-20T04:05:01.426Z,1022.4
2017-12-20T04:06:01.459Z,1022.4
2017-12-20T04:07:01.223Z,1022.4
2017-12-20T04:08:01.220Z,1022.4
2017-12-20T04:09:00.981Z,1022.4
2017-12-20T04:10:00.995Z,1022.3
2017-12-20T04:11:01.046Z,1022.3
2017-12-20T04:12:00.992Z,1022.3
2017-12-20T04:13:01.218Z,1022.3
2017-12-20T04:14:01.010Z,1022.3
2017-12-20T04:15:01.372Z,1022.3
2017-12-20T04:16:01.215Z,1022.3
2017-12-20T04:17:01.408Z,1022.3
2017-12-20T04:18:01.214Z,1022.4
2017-12-20T04:19:01.253Z,1022.4
2017-12-20T04:20:01.410Z,1022.4
2017-12-20T04:21:01.065Z,1022.4
2017-12-20T04:22:00.978Z,1022.4
2017-12-20T04:23:01.213Z,1022.4
2017-12-20T04:24:01.028Z,1022.5
2017-12-20T04:25:01.150Z,1022.5
2017-12-20T04:26:01.434Z,1022.5
2017-12-20T04:27:01.185Z,1022.5
2017-12-20T04:28:01.220Z,1022.5
2017-12-20T04:29:01.196Z,1022.5
2017-12-20T04:30:01.203Z,1022.4
2017-12-20T04:31:01.153Z,1022.4
2017-12-20T04:32:00.990Z,1022.4
2017-12-20T04:33:01.190Z,1022.5
2017-12-20T04:34:01.193Z,1022.5
2017-12-20T04:35:01.151Z,1022.5
2017-12-20T04:36:01.036Z,1022.5
2017-12-20T04:37:00.968Z,1022.5
2017-12-20T04:38:01.194Z,1022.5
2017-12-20T04:39:01.022Z,1022.4
2017-12-20T04:40:01.205Z,1022.4
2017-12-20T04:41:01.261Z,1022.4
2017-12-20T04:42:01.393Z,1022.3
2017-12-20T04:43:01.227Z,1022.3
2017-12-20T04:44:01.197Z,1022.3
2017-12-20T04:45:01.426Z,1022.3
2017-12-20T04:46:01.533Z,1022.4
2017-12-20T04:47:01.416Z,1022.3
2017-12-20T04:48:01.003Z,1022.3
2017-12-20T04:49:01.024Z,1022.3
2017-12-20T04:50:01.262Z,1022.3
2017-12-20T04:51:01.263Z,1022.3
2017-12-20T04:52:01.403Z,1022.3
2017-12-20T04:53:01.227Z,1022.3
2017-12-20T04:54:01.191Z,1022.3
2017-12-20T04:55:01.026Z,1022.3
2017-12-20T04:56:01.047Z,1022.3
2017-12-20T04:57:01.013Z,1022.3
2017-12-20T04:58:01.014Z,1022.3
2017-12-20T04:59:00.982Z,1022.3
2017-12-20T05:00:01.195Z,1022.3
2017-12-20T05:01:01.389Z,1022.3
2017-12-20T05:02:01.186Z,1022.3
2017-12-20T05:03:01.054Z,1022.2
2017-12-20T05:04:01.193Z,1022.2
2017-12-20T05:05:01.194Z,1022.3
2017-12-20T05:06:01.182Z,1022.3
2017-12-20T05:07:01.017Z,1022.3
2017-12-20T05:08:01.288Z,1022.3
2017-12-20T05:09:01.002Z,1022.3
2017-12-20T05:10:01.426Z,1022.3
2017-12-20T05:11:01.010Z,1022.3
2017-12-20T05:12:01.402Z,1022.3
2017-12-20T05:13:01.291Z,1022.3
2017-12-20T05:14:01.199Z,1022.3
2017-12-20T05:15:00.982Z,1022.4
2017-12-20T05:16:01.038Z,1022.4
2017-12-20T05:17:01.035Z,1022.4
2017-12-20T05:18:01.022Z,1022.4
2017-12-20T05:19:01.266Z,1022.4
2017-12-20T05:20:01.227Z,1022.4
2017-12-20T05:21:01.481Z,1022.4
2017-12-20T05:22:01.016Z,1022.4
2017-12-20T05:23:01.350Z,1022.4
2017-12-20T05:24:00.999Z,1022.4
2017-12-20T05:25:01.017Z,1022.4
2017-12-20T05:26:01.255Z,1022.4
2017-12-20T05:27:01.190Z,1022.4
2017-12-20T05:28:01.420Z,1022.5
2017-12-20T05:29:01.072Z,1022.5
2017-12-20T05:30:01.440Z,1022.5
2017-12-20T05:31:01.207Z,1022.5
2017-12-20T05:32:01.231Z,1022.5
2017-12-20T05:33:01.388Z,1022.5
2017-12-20T05:34:01.048Z,1022.6
2017-12-20T05:35:01.464Z,1022.6
2017-12-20T05:36:01.216Z,1022.6
2017-12-20T05:37:01.005Z,1022.6
2017-12-20T05:38:01.481Z,1022.6
2017-12-20T05:39:01.213Z,1022.6
2017-12-20T05:40:01.025Z,1022.6
2017-12-20T05:41:01.229Z,1022.5
2017-12-20T05:42:01.397Z,1022.6
2017-12-20T05:43:01.263Z,1022.6
2017-12-20T05:44:01.437Z,1022.6
2017-12-20T05:45:01.105Z,1022.6
2017-12-20T05:46:01.211Z,1022.6
2017-12-20T05:47:01.226Z,1022.6
2017-12-20T05:48:01.049Z,1022.6
2017-12-20T05:49:01.430Z,1022.6
2017-12-20T05:50:01.038Z,1022.6
2017-12-20T05:51:01.235Z,1022.6
2017-12-20T05:52:01.482Z,1022.5
2017-12-20T05:53:01.444Z,1022.5
2017-12-20T05:54:01.399Z,1022.5
2017-12-20T05:55:01.247Z,1022.5
2017-12-20T05:56:01.038Z,1022.5
2017-12-20T05:57:01.244Z,1022.6
2017-12-20T05:58:00.992Z,1022.6
2017-12-20T05:59:01.063Z,1022.6
2017-12-20T06:00:01.040Z,1022.5
2017-12-20T06:01:01.418Z,1022.6
2017-12-20T06:02:01.258Z,1022.6
2017-12-20T06:03:01.232Z,1022.6
2017-12-20T06:04:01.038Z,1022.6
2017-12-20T06:05:01.217Z,1022.6
2017-12-20T06:06:01.027Z,1022.6
2017-12-20T06:07:01.232Z,1022.6
2017-12-20T06:08:01.317Z,1022.6
2017-12-20T06:09:01.040Z,1022.6
2017-12-20T06:10:01.458Z,1022.6
2017-12-20T06:11:01.056Z,1022.6
2017-12-20T06:12:01.044Z,1022.6
2017-12-20T06:13:01.221Z,1022.6
2017-12-20T06:14:01.198Z,1022.6
2017-12-20T06:15:01.561Z,1022.6
2017-12-20T06:16:01.220Z,1022.6
2017-12-20T06:17:01.455Z,1022.6
2017-12-20T06:18:01.248Z,1022.6
2017-12-20T06:19:01.258Z,1022.7
2017-12-20T06:20:01.368Z,1022.6
2017-12-20T06:21:01.441Z,1022.6
2017-12-20T06:22:01.015Z,1022.6
2017-12-20T06:23:01.086Z,1022.6
2017-12-20T06:24:01.248Z,1022.6
2017-12-20T06:25:01.261Z,1022.6
2017-12-20T06:26:01.250Z,1022.6
2017-12-20T06:27:01.430Z,1022.6
2017-12-20T06:28:01.049Z,1022.6
2017-12-20T06:29:01.247Z,1022.6
2017-12-20T06:30:01.586Z,1022.6
2017-12-20T06:31:01.060Z,1022.6
2017-12-20T06:32:01.231Z,1022.5
2017-12-20T06:33:01.253Z,1022.5
2017-12-20T06:34:01.054Z,1022.6
2017-12-20T06:35:01.427Z,1022.5
2017-12-20T06:36:01.231Z,1022.5
2017-12-20T06:37:01.214Z,1022.5
2017-12-20T06:38:01.047Z,1022.5
2017-12-20T06:39:01.423Z,1022.4
2017-12-20T06:40:01.244Z,1022.5
2017-12-20T06:41:01.030Z,1022.5
2017-12-20T06:42:01.252Z,1022.5
2017-12-20T06:43:01.399Z,1022.5
2017-12-20T06:44:01.067Z,1022.4
2017-12-20T06:45:01.047Z,1022.5
2017-12-20T06:46:01.444Z,1022.4
2017-12-20T06:47:01.091Z,1022.5
2017-12-20T06:48:01.025Z,1022.4
2017-12-20T06:49:01.225Z,1022.5
2017-12-20T06:50:01.072Z,1022.4
2017-12-20T06:51:01.401Z,1022.5
2017-12-20T06:52:01.042Z,1022.5
2017-12-20T06:53:01.047Z,1022.5
2017-12-20T06:54:01.168Z,1022.6
2017-12-20T06:55:01.391Z,1022.6
2017-12-20T06:56:01.039Z,1022.6
2017-12-20T06:57:01.220Z,1022.7
2017-12-20T06:58:01.014Z,1022.7
2017-12-20T06:59:01.473Z,1022.7
2017-12-20T07:00:01.274Z,1022.7
2017-12-20T07:01:01.219Z,1022.7
2017-12-20T07:02:01.084Z,1022.7
2017-12-20T07:03:01.233Z,1022.7
2017-12-20T07:04:01.603Z,1022.7
2017-12-20T07:05:01.061Z,1022.7
2017-12-20T07:06:01.296Z,1022.7
2017-12-20T07:07:01.447Z,1022.7
2017-12-20T07:08:01.251Z,1022.7
2017-12-20T07:09:01.525Z,1022.7
2017-12-20T07:10:01.326Z,1022.7
2017-12-20T07:11:01.054Z,1022.8
2017-12-20T07:12:01.278Z,1022.7
2017-12-20T07:13:01.079Z,1022.7
2017-12-20T07:14:01.422Z,1022.7
2017-12-20T07:15:01.647Z,1022.8
2017-12-20T07:16:01.066Z,1022.8
2017-12-20T07:17:01.460Z,1022.8
2017-12-20T07:18:01.048Z,1022.8
2017-12-20T07:19:01.077Z,1022.8
2017-12-20T07:20:01.515Z,1022.8
2017-12-20T07:21:01.276Z,1022.9
2017-12-20T07:22:01.463Z,1022.9
2017-12-20T07:23:01.448Z,1022.9
2017-12-20T07:24:01.044Z,1022.9
2017-12-20T07:25:01.343Z,1022.9
2017-12-20T07:26:01.281Z,1022.9
2017-12-20T07:27:01.258Z,1022.9
2017-12-20T07:28:01.273Z,1022.9
2017-12-20T07:29:01.460Z,1022.9
2017-12-20T07:30:01.499Z,1022.9
2017-12-20T07:31:01.462Z,1022.9
2017-12-20T07:32:01.157Z,1022.9
2017-12-20T07:33:01.278Z,1022.9
2017-12-20T07:34:01.263Z,1022.8
2017-12-20T07:35:01.253Z,1022.8
2017-12-20T07:36:01.183Z,1022.8
2017-12-20T07:37:01.473Z,1022.8
2017-12-20T07:38:01.481Z,1022.9
2017-12-20T07:39:01.523Z,1022.9
2017-12-20T07:40:01.462Z,1022.9
2017-12-20T07:41:01.246Z,1022.9
2017-12-20T07:42:01.065Z,1022.9
2017-12-20T07:43:01.074Z,1022.9
2017-12-20T07:44:01.261Z,1022.9
2017-12-20T07:45:01.297Z,1022.8
2017-12-20T07:46:01.280Z,1022.9
2017-12-20T07:47:01.291Z,1022.9
2017-12-20T07:48:01.309Z,1022.9
2017-12-20T07:49:01.255Z,1022.9
2017-12-20T07:50:01.255Z,1023
2017-12-20T07:51:01.257Z,1023
2017-12-20T07:52:01.130Z,1023
2017-12-20T07:53:01.342Z,1023
2017-12-20T07:54:01.257Z,1023
2017-12-20T07:55:01.171Z,1023.1
2017-12-20T07:56:01.330Z,1023.1
2017-12-20T07:57:01.092Z,1023.1
2017-12-20T07:58:01.430Z,1023.1
2017-12-20T07:59:01.458Z,1023.1
2017-12-20T08:00:01.341Z,1023.1
2017-12-20T08:01:01.480Z,1023.1
2017-12-20T08:02:01.498Z,1023.1
2017-12-20T08:03:01.281Z,1023.1
2017-12-20T08:04:01.124Z,1023.1
2017-12-20T08:05:01.458Z,1023.1
2017-12-20T08:06:01.282Z,1023.1
2017-12-20T08:07:01.533Z,1023.1
2017-12-20T08:08:01.296Z,1023.2
2017-12-20T08:09:01.327Z,1023.2
2017-12-20T08:10:01.279Z,1023.2
2017-12-20T08:11:01.236Z,1023.2
2017-12-20T08:12:01.324Z,1023.2
2017-12-20T08:13:01.280Z,1023.2
2017-12-20T08:14:01.513Z,1023.2
2017-12-20T08:15:01.465Z,1023.2
2017-12-20T08:16:01.463Z,1023.2
2017-12-20T08:17:01.299Z,1023.2
2017-12-20T08:18:01.472Z,1023.2
2017-12-20T08:19:01.436Z,1023.3
2017-12-20T08:20:01.331Z,1023.3
2017-12-20T08:21:01.308Z,1023.3
2017-12-20T08:22:01.332Z,1023.3
2017-12-20T08:23:01.106Z,1023.3
2017-12-20T08:24:01.254Z,1023.2
2017-12-20T08:25:01.108Z,1023.3
2017-12-20T08:26:01.273Z,1023.2
2017-12-20T08:27:01.179Z,1023.3
2017-12-20T08:28:01.270Z,1023.3
2017-12-20T08:29:01.092Z,1023.3
2017-12-20T08:30:01.298Z,1023.3
2017-12-20T08:31:01.520Z,1023.3
2017-12-20T08:32:01.280Z,1023.3
2017-12-20T08:33:01.512Z,1023.3
2017-12-20T08:34:01.321Z,1023.3
2017-12-20T08:35:01.257Z,1023.3
2017-12-20T08:36:01.494Z,1023.3
2017-12-20T08:37:01.102Z,1023.3
2017-12-20T08:38:01.283Z,1023.3
2017-12-20T08:39:01.155Z,1023.4
2017-12-20T08:40:01.509Z,1023.3
2017-12-20T08:41:01.259Z,1023.4
2017-12-20T08:42:01.114Z,1023.4
2017-12-20T08:43:01.108Z,1023.4
2017-12-20T08:44:01.293Z,1023.4
2017-12-20T08:45:01.560Z,1023.5
2017-12-20T08:46:01.069Z,1023.5
2017-12-20T08:47:01.280Z,1023.5
2017-12-20T08:48:01.465Z,1023.5
2017-12-20T08:49:01.269Z,1023.5
2017-12-20T08:50:01.474Z,1023.5
2017-12-20T08:51:01.547Z,1023.5
2017-12-20T08:52:01.268Z,1023.5
2017-12-20T08:54:01.272Z,1023.6
2017-12-20T08:55:01.066Z,1023.5
2017-12-20T08:56:01.327Z,1023.5
2017-12-20T08:57:01.518Z,1023.5
2017-12-20T08:58:01.360Z,1023.5
2017-12-20T08:59:01.506Z,1023.6
2017-12-20T09:00:01.472Z,1023.6
2017-12-20T09:01:01.291Z,1023.6
2017-12-20T09:02:01.811Z,1023.6
2017-12-20T09:03:01.309Z,1023.6
2017-12-20T09:04:01.474Z,1023.6
2017-12-20T09:05:01.503Z,1023.6
2017-12-20T09:06:01.276Z,1023.5
2017-12-20T09:07:01.313Z,1023.5
2017-12-20T09:08:01.299Z,1023.6
2017-12-20T09:09:01.336Z,1023.6
2017-12-20T09:10:01.462Z,1023.5
2017-12-20T09:11:01.064Z,1023.6
2017-12-20T09:12:01.315Z,1023.6
2017-12-20T09:13:01.292Z,1023.6
2017-12-20T09:14:01.308Z,1023.6
2017-12-20T09:15:01.293Z,1023.7
2017-12-20T09:16:01.276Z,1023.7
2017-12-20T09:17:01.350Z,1023.7
2017-12-20T09:18:01.475Z,1023.7
2017-12-20T09:19:01.086Z,1023.7
2017-12-20T09:20:01.288Z,1023.7
2017-12-20T09:21:01.317Z,1023.7
2017-12-20T09:22:01.527Z,1023.7
2017-12-20T09:23:01.473Z,1023.7
2017-12-20T09:24:01.293Z,1023.7
2017-12-20T09:25:01.536Z,1023.6
2017-12-20T09:26:01.109Z,1023.6
2017-12-20T09:27:01.534Z,1023.6
2017-12-20T09:28:01.502Z,1023.7
2017-12-20T09:29:01.365Z,1023.6
2017-12-20T09:30:01.275Z,1023.7
2017-12-20T09:31:01.490Z,1023.7
2017-12-20T09:32:01.488Z,1023.7
2017-12-20T09:33:01.519Z,1023.7
2017-12-20T09:34:01.534Z,1023.8
2017-12-20T09:35:01.522Z,1023.8
2017-12-20T09:36:01.339Z,1023.8
2017-12-20T09:37:01.292Z,1023.9
2017-12-20T09:38:01.607Z,1023.9
2017-12-20T09:39:01.314Z,1023.9
2017-12-20T09:40:01.505Z,1023.9
2017-12-20T09:41:01.329Z,1023.9
2017-12-20T09:42:01.264Z,1023.9
2017-12-20T09:43:01.354Z,1023.9
2017-12-20T09:44:01.329Z,1023.9
2017-12-20T09:45:01.346Z,1023.9
2017-12-20T09:46:01.285Z,1023.9
2017-12-20T09:47:01.316Z,1023.9
2017-12-20T09:48:01.478Z,1023.9
2017-12-20T09:49:01.067Z,1023.9
2017-12-20T09:50:01.403Z,1023.9
2017-12-20T09:51:01.323Z,1023.9
2017-12-20T09:52:01.529Z,1023.9
2017-12-20T09:53:01.540Z,1023.8
2017-12-20T09:54:01.294Z,1023.9
2017-12-20T09:55:01.394Z,1023.9
2017-12-20T09:56:01.285Z,1023.8
2017-12-20T09:57:01.511Z,1023.8
2017-12-20T09:58:01.514Z,1023.8
2017-12-20T09:59:01.540Z,1023.8
2017-12-20T10:00:01.583Z,1023.8
2017-12-20T10:01:01.502Z,1023.8
2017-12-20T10:02:01.144Z,1023.8
2017-12-20T10:03:01.125Z,1023.8
2017-12-20T10:04:01.307Z,1023.8
2017-12-20T10:05:01.306Z,1023.8
2017-12-20T10:06:01.318Z,1023.8
2017-12-20T10:07:01.524Z,1023.7
2017-12-20T10:08:01.493Z,1023.7
2017-12-20T10:09:01.491Z,1023.7
2017-12-20T10:10:01.570Z,1023.7
2017-12-20T10:11:01.331Z,1023.7
2017-12-20T10:12:01.326Z,1023.8
2017-12-20T10:13:01.517Z,1023.8
2017-12-20T10:14:01.145Z,1023.8
2017-12-20T10:15:01.378Z,1023.8
2017-12-20T10:16:01.509Z,1023.7
2017-12-20T10:17:01.515Z,1023.8
2017-12-20T10:18:01.114Z,1023.8
2017-12-20T10:19:01.140Z,1023.8
2017-12-20T10:20:01.486Z,1023.7
2017-12-20T10:21:01.380Z,1023.8
2017-12-20T10:22:01.552Z,1023.7
2017-12-20T10:23:01.334Z,1023.7
2017-12-20T10:24:01.506Z,1023.7
2017-12-20T10:25:01.507Z,1023.7
2017-12-20T10:26:01.582Z,1023.6
2017-12-20T10:27:01.528Z,1023.6
2017-12-20T10:28:01.320Z,1023.6
2017-12-20T10:29:01.509Z,1023.6
2017-12-20T10:30:01.538Z,1023.6
2017-12-20T10:31:01.221Z,1023.5
2017-12-20T10:33:01.519Z,1023.5
2017-12-20T10:34:01.321Z,1023.5
2017-12-20T10:35:01.125Z,1023.5
2017-12-20T10:36:01.390Z,1023.4
2017-12-20T10:37:01.321Z,1023.5
2017-12-20T10:38:01.317Z,1023.5
2017-12-20T10:39:01.326Z,1023.4
2017-12-20T10:40:01.128Z,1023.4
2017-12-20T10:41:01.360Z,1023.4
2017-12-20T10:42:01.357Z,1023.3
2017-12-20T10:43:01.114Z,1023.3
2017-12-20T10:44:01.135Z,1023.4
2017-12-20T10:45:01.143Z,1023.3
2017-12-20T10:46:01.367Z,1023.3
2017-12-20T10:47:01.432Z,1023.3
2017-12-20T10:48:01.312Z,1023.4
2017-12-20T10:49:01.364Z,1023.4
2017-12-20T10:50:01.116Z,1023.4
2017-12-20T10:51:20.155Z,1023.4
2017-12-20T10:51:27.920Z,1023.4
2017-12-20T10:51:52.702Z,1023.4
2017-12-20T10:52:50.750Z,1023.4
2017-12-20T10:53:50.733Z,1023.4
2017-12-20T10:54:50.687Z,1023.3
2017-12-20T10:55:50.714Z,1023.3
2017-12-20T10:56:50.702Z,1023.3
2017-12-20T10:57:51.313Z,1023.3
2017-12-20T10:58:50.696Z,1023.2
2017-12-20T10:59:50.932Z,1023.2
2017-12-20T11:00:50.891Z,1023.2
2017-12-20T11:01:50.687Z,1023.2
2017-12-20T11:02:50.714Z,1023.2
2017-12-20T11:03:25.104Z,1023.3
2017-12-20T11:04:23.839Z,1023.2
2017-12-20T11:05:23.843Z,1023.3
2017-12-20T11:06:23.826Z,1023.2
2017-12-20T11:07:24.014Z,1023.2
2017-12-20T11:08:23.815Z,1023.3
2017-12-20T11:09:23.817Z,1023.3
2017-12-20T11:10:24.052Z,1023.2
2017-12-20T11:11:24.050Z,1023.3
2017-12-20T11:12:23.978Z,1023.2
2017-12-20T11:13:23.810Z,1023.3
2017-12-20T11:14:24.029Z,1023.2
2017-12-20T11:15:24.031Z,1023.2
2017-12-20T11:16:24.006Z,1023.3
2017-12-20T11:17:23.807Z,1023.2
2017-12-20T11:18:23.811Z,1023.2
2017-12-20T11:19:23.805Z,1023.2
2017-12-20T11:20:24.228Z,1023.1
2017-12-20T11:21:23.987Z,1023.2
2017-12-20T11:22:23.827Z,1023.2
2017-12-20T11:23:23.815Z,1023.2
2017-12-20T11:24:23.820Z,1023.2
2017-12-20T11:25:23.861Z,1023.2
2017-12-20T11:26:23.856Z,1023.1
2017-12-20T11:27:23.841Z,1023.1
2017-12-20T11:28:23.849Z,1023.1
2017-12-20T11:29:24.039Z,1023.1
2017-12-20T11:30:24.048Z,1023.1
2017-12-20T11:31:24.082Z,1023.1
2017-12-20T11:32:23.995Z,1023.1
2017-12-20T11:33:24.026Z,1023.1
2017-12-20T11:34:23.804Z,1023.1
2017-12-20T11:35:24.081Z,1023
2017-12-20T11:36:23.840Z,1023.1
2017-12-20T11:37:24.047Z,1023.1
2017-12-20T11:38:23.815Z,1023.1
2017-12-20T11:39:23.843Z,1023.1
2017-12-20T11:40:23.841Z,1023.1
2017-12-20T11:41:24.107Z,1023.2
2017-12-20T11:42:24.040Z,1023.1
2017-12-20T11:43:24.067Z,1023.1
2017-12-20T11:44:24.000Z,1023.2
2017-12-20T11:45:24.059Z,1023.2
2017-12-20T11:46:23.846Z,1023.1
2017-12-20T11:47:23.853Z,1023.1
2017-12-20T11:48:24.238Z,1023.1
2017-12-20T11:49:23.865Z,1023.1
2017-12-20T11:50:23.822Z,1023
2017-12-20T11:51:24.221Z,1023.1
2017-12-20T11:52:24.022Z,1023
2017-12-20T11:53:24.030Z,1023
2017-12-20T11:54:24.065Z,1023
2017-12-20T11:55:23.887Z,1023
2017-12-20T11:56:24.020Z,1023
2017-12-20T11:57:24.325Z,1023
2017-12-20T11:58:24.022Z,1023
2017-12-20T11:59:24.071Z,1023
2017-12-20T12:00:24.080Z,1023.1
2017-12-20T12:01:23.863Z,1023.1
2017-12-20T12:02:24.249Z,1023.1
2017-12-20T12:03:23.898Z,1023.1
2017-12-20T12:04:24.075Z,1023
2017-12-20T12:05:24.045Z,1023
2017-12-20T12:06:23.935Z,1023
2017-12-20T12:07:24.050Z,1023.1
2017-12-20T12:08:24.277Z,1023.1
2017-12-20T12:09:24.233Z,1023.1
2017-12-20T12:10:24.069Z,1023
2017-12-20T12:11:24.322Z,1023.1
2017-12-20T12:12:23.860Z,1023.1
2017-12-20T12:13:23.866Z,1023
2017-12-20T12:14:24.069Z,1023.1
2017-12-20T12:15:24.306Z,1023.1
2017-12-20T12:16:24.231Z,1023.1
2017-12-20T12:17:24.255Z,1023
2017-12-20T12:18:24.033Z,1023
2017-12-20T12:19:24.266Z,1022.9
2017-12-20T12:20:23.864Z,1022.9
2017-12-20T12:21:24.052Z,1022.9
2017-12-20T12:22:24.146Z,1022.8
2017-12-20T12:23:23.863Z,1022.9
2017-12-20T12:24:24.258Z,1022.9
2017-12-20T12:25:23.864Z,1022.9
2017-12-20T12:26:23.864Z,1022.9
2017-12-20T12:27:24.105Z,1023
2017-12-20T12:28:24.263Z,1022.9
2017-12-20T12:29:24.049Z,1023
2017-12-20T12:30:24.206Z,1023
2017-12-20T12:31:23.874Z,1023
2017-12-20T12:32:23.911Z,1023
2017-12-20T12:33:24.429Z,1023